Terminal Aerodrome Forecast
Issued by NWS Chicago, IL

Home | Current Version | Previous Version | Text Only | Print | Product List | Glossary On
Versions: 1 2 3 4 5 6 7 8 9 10 11 12 13 14 15 16 17 18 19 20 21 22 23 24 25 26
444
FTUS43 KLOT 221217 CCC
TAFRFD
TAF COR
KRFD 221217Z 2212/2312 08011KT 4SM -RA BR OVC003
      TEMPO 2212/2214 2SM RA BR OVC003
     FM221400 10011KT 2SM BR OVC004
     FM221800 17010KT P6SM BKN050 OVC100
     FM222000 18009KT P6SM VCSH BKN050
      TEMPO 2221/2301 3SM -SHRA
     FM230100 23008KT 3SM BR VCSH SCT007 OVC010 PROB30 2307/2312 1SM
      -SN OVC007=

USA.gov is the U.S. government's official web portal to all federal, state and local government web resources and services.